sensor_id;sensor_type;location;lat;lon;timestamp;temperature;humidity
39045;DHT22;52192;52.002;5.956;2023-01-01T00:00:10;17.50;57.60
39045;DHT22;52192;52.002;5.956;2023-01-01T00:02:36;17.50;58.00
39045;DHT22;52192;52.002;5.956;2023-01-01T00:05:02;17.50;57.80
39045;DHT22;52192;52.002;5.956;2023-01-01T00:07:29;17.50;58.00
39045;DHT22;52192;52.002;5.956;2023-01-01T00:09:54;17.60;57.70
39045;DHT22;52192;52.002;5.956;2023-01-01T00:12:39;17.60;57.80
39045;DHT22;52192;52.002;5.956;2023-01-01T00:15:05;17.60;57.60
39045;DHT22;52192;52.002;5.956;2023-01-01T00:17:31;17.60;57.70
39045;DHT22;52192;52.002;5.956;2023-01-01T00:19:57;17.60;57.70
39045;DHT22;52192;52.002;5.956;2023-01-01T00:22:22;17.60;57.80
39045;DHT22;52192;52.002;5.956;2023-01-01T00:24:49;17.60;57.80
39045;DHT22;52192;52.002;5.956;2023-01-01T00:27:15;17.60;57.60
39045;DHT22;52192;52.002;5.956;2023-01-01T00:29:40;17.60;57.40
39045;DHT22;52192;52.002;5.956;2023-01-01T00:32:06;17.60;57.70
39045;DHT22;52192;52.002;5.956;2023-01-01T00:34:32;17.60;57.70
39045;DHT22;52192;52.002;5.956;2023-01-01T00:36:58;17.60;57.60
39045;DHT22;52192;52.002;5.956;2023-01-01T00:39:23;17.60;57.50
39045;DHT22;52192;52.002;5.956;2023-01-01T00:41:49;17.60;57.50
39045;DHT22;52192;52.002;5.956;2023-01-01T00:44:15;17.60;57.80
39045;DHT22;52192;52.002;5.956;2023-01-01T00:46:40;17.60;57.90
39045;DHT22;52192;52.002;5.956;2023-01-01T00:49:06;17.60;58.10
39045;DHT22;52192;52.002;5.956;2023-01-01T00:51:32;17.60;58.30
39045;DHT22;52192;52.002;5.956;2023-01-01T00:53:58;17.50;58.60
39045;DHT22;52192;52.002;5.956;2023-01-01T00:56:23;17.40;58.80
39045;DHT22;52192;52.002;5.956;2023-01-01T00:58:49;17.40;59.30
39045;DHT22;52192;52.002;5.956;2023-01-01T01:01:15;17.40;59.30
39045;DHT22;52192;52.002;5.956;2023-01-01T01:03:41;17.40;59.50
39045;DHT22;52192;52.002;5.956;2023-01-01T01:06:08;17.40;59.70
39045;DHT22;52192;52.002;5.956;2023-01-01T01:08:36;17.40;59.90
39045;DHT22;52192;52.002;5.956;2023-01-01T01:11:14;17.30;60.00
39045;DHT22;52192;52.002;5.956;2023-01-01T01:13:41;17.30;60.30
39045;DHT22;52192;52.002;5.956;2023-01-01T01:16:16;17.30;60.50
39045;DHT22;52192;52.002;5.956;2023-01-01T01:18:43;17.20;60.40
39045;DHT22;52192;52.002;5.956;2023-01-01T01:21:09;17.20;60.30
39045;DHT22;52192;52.002;5.956;2023-01-01T01:23:35;17.20;60.10
39045;DHT22;52192;52.002;5.956;2023-01-01T01:26:09;17.20;59.90
39045;DHT22;52192;52.002;5.956;2023-01-01T01:28:35;17.20;59.70
39045;DHT22;52192;52.002;5.956;2023-01-01T01:31:01;17.20;59.50
39045;DHT22;52192;52.002;5.956;2023-01-01T01:33:27;17.20;60.00
39045;DHT22;52192;52.002;5.956;2023-01-01T01:35:52;17.20;59.50
39045;DHT22;52192;52.002;5.956;2023-01-01T01:38:18;17.10;59.70
39045;DHT22;52192;52.002;5.956;2023-01-01T01:40:44;17.10;59.70
39045;DHT22;52192;52.002;5.956;2023-01-01T01:46:04;17.10;59.90
39045;DHT22;52192;52.002;5.956;2023-01-01T01:48:38;17.10;59.90
39045;DHT22;52192;52.002;5.956;2023-01-01T01:51:06;17.00;59.40
39045;DHT22;52192;52.002;5.956;2023-01-01T01:53:37;17.00;59.30
39045;DHT22;52192;52.002;5.956;2023-01-01T01:56:09;17.10;59.60
39045;DHT22;52192;52.002;5.956;2023-01-01T01:58:35;17.00;59.60
39045;DHT22;52192;52.002;5.956;2023-01-01T02:01:02;17.00;59.50
39045;DHT22;52192;52.002;5.956;2023-01-01T02:03:44;17.00;59.50
39045;DHT22;52192;52.002;5.956;2023-01-01T02:06:12;17.00;59.60
39045;DHT22;52192;52.002;5.956;2023-01-01T02:08:38;17.00;59.60
39045;DHT22;52192;52.002;5.956;2023-01-01T02:11:04;17.00;59.40
39045;DHT22;52192;52.002;5.956;2023-01-01T02:13:29;17.00;59.40
39045;DHT22;52192;52.002;5.956;2023-01-01T02:21:21;17.00;58.90
39045;DHT22;52192;52.002;5.956;2023-01-01T02:24:22;17.00;58.70
39045;DHT22;52192;52.002;5.956;2023-01-01T02:26:58;17.00;59.00
39045;DHT22;52192;52.002;5.956;2023-01-01T02:29:50;17.00;58.90
39045;DHT22;52192;52.002;5.956;2023-01-01T02:32:25;17.00;59.10
39045;DHT22;52192;52.002;5.956;2023-01-01T02:35:23;17.00;59.20
39045;DHT22;52192;52.002;5.956;2023-01-01T02:38:20;17.00;59.00
39045;DHT22;52192;52.002;5.956;2023-01-01T02:40:50;17.00;58.60
39045;DHT22;52192;52.002;5.956;2023-01-01T02:43:16;16.90;58.70
39045;DHT22;52192;52.002;5.956;2023-01-01T02:45:42;17.00;58.40
39045;DHT22;52192;52.002;5.956;2023-01-01T02:49:00;17.00;58.30
39045;DHT22;52192;52.002;5.956;2023-01-01T02:51:24;17.00;58.20
39045;DHT22;52192;52.002;5.956;2023-01-01T03:05:07;17.00;57.60
39045;DHT22;52192;52.002;5.956;2023-01-01T03:10:42;17.00;56.90
39045;DHT22;52192;52.002;5.956;2023-01-01T03:13:23;17.10;57.30
39045;DHT22;52192;52.002;5.956;2023-01-01T03:18:28;17.10;57.10
39045;DHT22;52192;52.002;5.956;2023-01-01T03:20:58;17.10;57.00
39045;DHT22;52192;52.002;5.956;2023-01-01T03:23:29;17.00;56.90
39045;DHT22;52192;52.002;5.956;2023-01-01T03:25:58;17.10;56.60
39045;DHT22;52192;52.002;5.956;2023-01-01T03:28:27;17.00;56.80
39045;DHT22;52192;52.002;5.956;2023-01-01T03:30:55;17.00;56.60
39045;DHT22;52192;52.002;5.956;2023-01-01T03:33:35;17.00;56.40
39045;DHT22;52192;52.002;5.956;2023-01-01T03:38:51;17.00;56.50
39045;DHT22;52192;52.002;5.956;2023-01-01T03:46:49;17.00;56.80
39045;DHT22;52192;52.002;5.956;2023-01-01T03:49:15;16.90;56.60
39045;DHT22;52192;52.002;5.956;2023-01-01T03:57:41;16.90;57.10
39045;DHT22;52192;52.002;5.956;2023-01-01T04:00:20;16.90;57.20
39045;DHT22;52192;52.002;5.956;2023-01-01T04:05:14;16.80;57.20
39045;DHT22;52192;52.002;5.956;2023-01-01T04:07:41;16.80;57.20
39045;DHT22;52192;52.002;5.956;2023-01-01T04:10:07;16.80;57.90
39045;DHT22;52192;52.002;5.956;2023-01-01T04:12:50;16.80;57.30
39045;DHT22;52192;52.002;5.956;2023-01-01T04:15:19;16.80;57.50
39045;DHT22;52192;52.002;5.956;2023-01-01T04:17:45;16.80;57.30
39045;DHT22;52192;52.002;5.956;2023-01-01T04:20:12;16.80;57.40
39045;DHT22;52192;52.002;5.956;2023-01-01T04:22:38;16.70;57.60
39045;DHT22;52192;52.002;5.956;2023-01-01T04:25:04;16.70;57.70
39045;DHT22;52192;52.002;5.956;2023-01-01T04:27:30;16.70;57.50
39045;DHT22;52192;52.002;5.956;2023-01-01T04:29:56;16.70;57.30
39045;DHT22;52192;52.002;5.956;2023-01-01T04:32:21;16.70;57.40
39045;DHT22;52192;52.002;5.956;2023-01-01T04:34:47;16.70;57.70
39045;DHT22;52192;52.002;5.956;2023-01-01T04:37:13;16.70;57.70
39045;DHT22;52192;52.002;5.956;2023-01-01T04:39:39;16.70;57.80
39045;DHT22;52192;52.002;5.956;2023-01-01T04:42:05;16.70;58.00
39045;DHT22;52192;52.002;5.956;2023-01-01T04:44:31;16.70;58.20
39045;DHT22;52192;52.002;5.956;2023-01-01T04:46:56;16.70;58.20
39045;DHT22;52192;52.002;5.956;2023-01-01T04:49:22;16.70;58.30
39045;DHT22;52192;52.002;5.956;2023-01-01T04:51:48;16.70;58.60
39045;DHT22;52192;52.002;5.956;2023-01-01T04:54:14;16.70;58.50
39045;DHT22;52192;52.002;5.956;2023-01-01T04:56:39;16.70;58.70
39045;DHT22;52192;52.002;5.956;2023-01-01T04:59:05;16.60;58.80
39045;DHT22;52192;52.002;5.956;2023-01-01T05:01:31;16.70;59.00
39045;DHT22;52192;52.002;5.956;2023-01-01T05:03:58;16.60;59.00
39045;DHT22;52192;52.002;5.956;2023-01-01T05:06:24;16.60;59.10
39045;DHT22;52192;52.002;5.956;2023-01-01T05:08:54;16.60;59.10
39045;DHT22;52192;52.002;5.956;2023-01-01T05:11:22;16.60;59.40
39045;DHT22;52192;52.002;5.956;2023-01-01T05:13:50;16.70;60.10
39045;DHT22;52192;52.002;5.956;2023-01-01T05:16:19;16.60;59.70
39045;DHT22;52192;52.002;5.956;2023-01-01T05:18:45;16.60;59.80
39045;DHT22;52192;52.002;5.956;2023-01-01T05:21:28;16.60;59.90
39045;DHT22;52192;52.002;5.956;2023-01-01T05:23:58;16.60;60.00
39045;DHT22;52192;52.002;5.956;2023-01-01T05:26:26;16.60;60.20
39045;DHT22;52192;52.002;5.956;2023-01-01T05:28:56;16.50;60.10
39045;DHT22;52192;52.002;5.956;2023-01-01T05:31:25;16.50;60.40
39045;DHT22;52192;52.002;5.956;2023-01-01T05:33:51;16.50;60.40
39045;DHT22;52192;52.002;5.956;2023-01-01T05:36:20;16.50;60.60
39045;DHT22;52192;52.002;5.956;2023-01-01T05:38:46;16.50;60.80
39045;DHT22;52192;52.002;5.956;2023-01-01T05:41:14;16.50;60.90
39045;DHT22;52192;52.002;5.956;2023-01-01T05:43:40;16.40;61.00
39045;DHT22;52192;52.002;5.956;2023-01-01T05:46:10;16.40;61.20
39045;DHT22;52192;52.002;5.956;2023-01-01T05:48:36;16.30;61.30
39045;DHT22;52192;52.002;5.956;2023-01-01T05:51:11;16.30;60.90
39045;DHT22;52192;52.002;5.956;2023-01-01T05:53:37;16.30;58.20
39045;DHT22;52192;52.002;5.956;2023-01-01T05:56:03;16.30;58.20
39045;DHT22;52192;52.002;5.956;2023-01-01T05:58:31;16.30;58.20
39045;DHT22;52192;52.002;5.956;2023-01-01T06:01:00;16.30;58.70
39045;DHT22;52192;52.002;5.956;2023-01-01T06:03:29;16.20;59.10
39045;DHT22;52192;52.002;5.956;2023-01-01T06:05:54;16.20;59.70
39045;DHT22;52192;52.002;5.956;2023-01-01T06:08:20;16.20;60.10
39045;DHT22;52192;52.002;5.956;2023-01-01T06:10:46;16.10;60.40
39045;DHT22;52192;52.002;5.956;2023-01-01T06:13:11;16.10;60.50
39045;DHT22;52192;52.002;5.956;2023-01-01T06:15:37;16.10;59.50
39045;DHT22;52192;52.002;5.956;2023-01-01T06:18:03;16.10;59.10
39045;DHT22;52192;52.002;5.956;2023-01-01T06:20:28;16.10;58.90
39045;DHT22;52192;52.002;5.956;2023-01-01T06:22:55;16.10;59.00
39045;DHT22;52192;52.002;5.956;2023-01-01T06:25:20;16.00;58.80
39045;DHT22;52192;52.002;5.956;2023-01-01T06:27:46;16.00;58.90
39045;DHT22;52192;52.002;5.956;2023-01-01T06:30:12;16.00;59.10
39045;DHT22;52192;52.002;5.956;2023-01-01T06:32:37;16.00;59.50
39045;DHT22;52192;52.002;5.956;2023-01-01T06:35:03;16.00;59.50
39045;DHT22;52192;52.002;5.956;2023-01-01T06:37:29;16.00;59.80
39045;DHT22;52192;52.002;5.956;2023-01-01T06:39:55;16.00;60.10
39045;DHT22;52192;52.002;5.956;2023-01-01T06:42:20;16.00;60.40
39045;DHT22;52192;52.002;5.956;2023-01-01T06:44:46;15.90;60.90
39045;DHT22;52192;52.002;5.956;2023-01-01T06:47:12;15.90;61.20
39045;DHT22;52192;52.002;5.956;2023-01-01T06:49:38;15.80;61.50
39045;DHT22;52192;52.002;5.956;2023-01-01T06:52:03;15.80;61.70
39045;DHT22;52192;52.002;5.956;2023-01-01T06:54:29;15.70;61.90
39045;DHT22;52192;52.002;5.956;2023-01-01T06:56:55;15.70;62.00
39045;DHT22;52192;52.002;5.956;2023-01-01T06:59:21;15.70;62.70
39045;DHT22;52192;52.002;5.956;2023-01-01T07:01:46;15.70;62.30
39045;DHT22;52192;52.002;5.956;2023-01-01T07:04:14;15.70;62.40
39045;DHT22;52192;52.002;5.956;2023-01-01T07:06:40;15.60;62.50
39045;DHT22;52192;52.002;5.956;2023-01-01T07:09:07;15.60;62.70
39045;DHT22;52192;52.002;5.956;2023-01-01T07:11:34;15.60;62.60
39045;DHT22;52192;52.002;5.956;2023-01-01T07:14:00;15.50;62.20
39045;DHT22;52192;52.002;5.956;2023-01-01T07:16:26;15.50;61.80
39045;DHT22;52192;52.002;5.956;2023-01-01T07:18:52;15.40;61.90
39045;DHT22;52192;52.002;5.956;2023-01-01T07:23:49;15.20;61.70
39045;DHT22;52192;52.002;5.956;2023-01-01T07:26:15;15.10;61.60
39045;DHT22;52192;52.002;5.956;2023-01-01T07:28:41;15.00;61.80
39045;DHT22;52192;52.002;5.956;2023-01-01T07:31:07;14.90;62.00
39045;DHT22;52192;52.002;5.956;2023-01-01T07:33:33;14.90;62.40
39045;DHT22;52192;52.002;5.956;2023-01-01T07:35:59;14.80;62.80
39045;DHT22;52192;52.002;5.956;2023-01-01T07:38:24;14.70;63.20
39045;DHT22;52192;52.002;5.956;2023-01-01T07:40:50;14.70;64.00
39045;DHT22;52192;52.002;5.956;2023-01-01T07:43:16;14.60;64.70
39045;DHT22;52192;52.002;5.956;2023-01-01T07:45:41;14.50;65.10
39045;DHT22;52192;52.002;5.956;2023-01-01T07:48:13;14.40;65.60
39045;DHT22;52192;52.002;5.956;2023-01-01T07:50:40;14.30;66.20
39045;DHT22;52192;52.002;5.956;2023-01-01T07:53:06;14.20;66.40
39045;DHT22;52192;52.002;5.956;2023-01-01T07:55:32;14.10;66.50
39045;DHT22;52192;52.002;5.956;2023-01-01T07:58:00;14.00;66.60
39045;DHT22;52192;52.002;5.956;2023-01-01T08:00:27;14.00;66.70
39045;DHT22;52192;52.002;5.956;2023-01-01T08:02:53;14.10;66.80
39045;DHT22;52192;52.002;5.956;2023-01-01T08:05:18;14.00;66.80
39045;DHT22;52192;52.002;5.956;2023-01-01T08:07:46;14.00;66.90
39045;DHT22;52192;52.002;5.956;2023-01-01T08:10:12;14.10;67.00
39045;DHT22;52192;52.002;5.956;2023-01-01T08:12:38;14.00;66.90
39045;DHT22;52192;52.002;5.956;2023-01-01T08:15:04;14.00;67.00
39045;DHT22;52192;52.002;5.956;2023-01-01T08:17:30;14.10;67.10
39045;DHT22;52192;52.002;5.956;2023-01-01T08:19:55;14.10;67.10
39045;DHT22;52192;52.002;5.956;2023-01-01T08:22:24;14.00;67.10
39045;DHT22;52192;52.002;5.956;2023-01-01T08:24:50;14.00;67.70
39045;DHT22;52192;52.002;5.956;2023-01-01T08:27:16;14.00;67.30
39045;DHT22;52192;52.002;5.956;2023-01-01T08:29:42;14.00;67.20
39045;DHT22;52192;52.002;5.956;2023-01-01T08:32:08;14.00;67.20
39045;DHT22;52192;52.002;5.956;2023-01-01T08:34:34;14.00;67.20
39045;DHT22;52192;52.002;5.956;2023-01-01T08:37:00;14.00;67.20
39045;DHT22;52192;52.002;5.956;2023-01-01T08:39:26;14.10;67.20
39045;DHT22;52192;52.002;5.956;2023-01-01T08:41:51;14.10;67.10
39045;DHT22;52192;52.002;5.956;2023-01-01T08:44:18;14.00;67.00
39045;DHT22;52192;52.002;5.956;2023-01-01T08:46:43;14.10;67.00
39045;DHT22;52192;52.002;5.956;2023-01-01T08:49:09;14.10;67.00
39045;DHT22;52192;52.002;5.956;2023-01-01T08:51:35;14.10;66.80
39045;DHT22;52192;52.002;5.956;2023-01-01T08:54:00;14.10;66.70
39045;DHT22;52192;52.002;5.956;2023-01-01T08:56:26;14.10;66.70
39045;DHT22;52192;52.002;5.956;2023-01-01T08:58:52;14.10;66.70
39045;DHT22;52192;52.002;5.956;2023-01-01T09:01:18;14.10;66.60
39045;DHT22;52192;52.002;5.956;2023-01-01T09:03:49;14.10;66.60
39045;DHT22;52192;52.002;5.956;2023-01-01T09:06:14;14.20;66.70
39045;DHT22;52192;52.002;5.956;2023-01-01T09:08:40;14.20;66.90
39045;DHT22;52192;52.002;5.956;2023-01-01T09:11:06;14.20;67.00
39045;DHT22;52192;52.002;5.956;2023-01-01T09:13:31;14.20;67.00
39045;DHT22;52192;52.002;5.956;2023-01-01T09:15:58;14.20;67.10
39045;DHT22;52192;52.002;5.956;2023-01-01T09:18:24;14.30;67.10
39045;DHT22;52192;52.002;5.956;2023-01-01T09:20:50;14.30;67.30
39045;DHT22;52192;52.002;5.956;2023-01-01T09:23:16;14.30;67.30
39045;DHT22;52192;52.002;5.956;2023-01-01T09:25:41;14.30;67.40
39045;DHT22;52192;52.002;5.956;2023-01-01T09:28:11;14.30;67.80
39045;DHT22;52192;52.002;5.956;2023-01-01T09:30:37;14.30;68.00
39045;DHT22;52192;52.002;5.956;2023-01-01T09:33:03;14.30;68.20
39045;DHT22;52192;52.002;5.956;2023-01-01T09:35:29;14.40;68.30
39045;DHT22;52192;52.002;5.956;2023-01-01T09:37:56;14.30;68.50
39045;DHT22;52192;52.002;5.956;2023-01-01T09:46:03;14.30;69.10
39045;DHT22;52192;52.002;5.956;2023-01-01T09:48:31;14.30;69.40
39045;DHT22;52192;52.002;5.956;2023-01-01T09:50:59;14.30;69.50
39045;DHT22;52192;52.002;5.956;2023-01-01T09:56:05;14.30;69.80
39045;DHT22;52192;52.002;5.956;2023-01-01T09:58:35;14.30;70.10
39045;DHT22;52192;52.002;5.956;2023-01-01T10:06:43;14.40;70.10
39045;DHT22;52192;52.002;5.956;2023-01-01T10:09:44;14.30;70.30
39045;DHT22;52192;52.002;5.956;2023-01-01T10:14:45;14.30;70.60
39045;DHT22;52192;52.002;5.956;2023-01-01T10:17:26;14.40;70.80
39045;DHT22;52192;52.002;5.956;2023-01-01T10:20:00;14.30;71.30
39045;DHT22;52192;52.002;5.956;2023-01-01T10:22:40;14.30;71.40
39045;DHT22;52192;52.002;5.956;2023-01-01T10:27:44;14.30;72.00
39045;DHT22;52192;52.002;5.956;2023-01-01T10:30:19;14.30;72.30
39045;DHT22;52192;52.002;5.956;2023-01-01T10:32:47;14.30;72.60
39045;DHT22;52192;52.002;5.956;2023-01-01T10:35:19;14.20;73.80
39045;DHT22;52192;52.002;5.956;2023-01-01T10:37:45;14.20;74.60
39045;DHT22;52192;52.002;5.956;2023-01-01T10:40:17;14.10;75.10
39045;DHT22;52192;52.002;5.956;2023-01-01T10:42:47;14.00;75.80
39045;DHT22;52192;52.002;5.956;2023-01-01T10:45:16;13.90;76.40
39045;DHT22;52192;52.002;5.956;2023-01-01T10:48:12;13.80;76.60
39045;DHT22;52192;52.002;5.956;2023-01-01T10:56:17;13.90;76.40
39045;DHT22;52192;52.002;5.956;2023-01-01T10:58:46;13.90;76.40
39045;DHT22;52192;52.002;5.956;2023-01-01T11:01:26;13.80;76.40
39045;DHT22;52192;52.002;5.956;2023-01-01T11:06:26;13.70;77.00
39045;DHT22;52192;52.002;5.956;2023-01-01T11:08:57;13.60;77.20
39045;DHT22;52192;52.002;5.956;2023-01-01T11:11:39;13.60;77.40
39045;DHT22;52192;52.002;5.956;2023-01-01T11:14:20;13.60;77.50
39045;DHT22;52192;52.002;5.956;2023-01-01T11:16:48;13.60;77.70
39045;DHT22;52192;52.002;5.956;2023-01-01T11:19:40;13.60;77.70
39045;DHT22;52192;52.002;5.956;2023-01-01T11:22:06;13.60;77.80
39045;DHT22;52192;52.002;5.956;2023-01-01T11:24:34;13.60;77.90
39045;DHT22;52192;52.002;5.956;2023-01-01T11:29:43;13.70;77.60
39045;DHT22;52192;52.002;5.956;2023-01-01T11:32:18;13.80;77.40
39045;DHT22;52192;52.002;5.956;2023-01-01T11:34:45;13.90;77.00
39045;DHT22;52192;52.002;5.956;2023-01-01T11:37:25;13.90;77.00
39045;DHT22;52192;52.002;5.956;2023-01-01T11:39:53;14.00;77.10
39045;DHT22;52192;52.002;5.956;2023-01-01T11:42:23;14.00;77.10
39045;DHT22;52192;52.002;5.956;2023-01-01T11:44:55;14.00;76.90
39045;DHT22;52192;52.002;5.956;2023-01-01T11:47:37;14.10;76.90
39045;DHT22;52192;52.002;5.956;2023-01-01T11:52:58;14.20;76.60
39045;DHT22;52192;52.002;5.956;2023-01-01T11:58:31;14.30;76.80
39045;DHT22;52192;52.002;5.956;2023-01-01T12:01:26;14.20;76.80
39045;DHT22;52192;52.002;5.956;2023-01-01T12:04:05;14.30;76.90
39045;DHT22;52192;52.002;5.956;2023-01-01T12:06:38;14.30;76.70
39045;DHT22;52192;52.002;5.956;2023-01-01T12:09:32;14.40;76.70
39045;DHT22;52192;52.002;5.956;2023-01-01T12:15:06;14.50;76.80
39045;DHT22;52192;52.002;5.956;2023-01-01T12:18:02;14.60;76.60
39045;DHT22;52192;52.002;5.956;2023-01-01T12:20:37;14.80;76.40
39045;DHT22;52192;52.002;5.956;2023-01-01T12:23:07;15.00;75.90
39045;DHT22;52192;52.002;5.956;2023-01-01T12:25:43;15.10;75.60
39045;DHT22;52192;52.002;5.956;2023-01-01T12:28:21;15.10;75.50
39045;DHT22;52192;52.002;5.956;2023-01-01T12:33:37;14.90;75.80
39045;DHT22;52192;52.002;5.956;2023-01-01T12:41:50;15.80;75.30
39045;DHT22;52192;52.002;5.956;2023-01-01T12:58:53;17.00;68.10
39045;DHT22;52192;52.002;5.956;2023-01-01T13:01:21;16.90;68.80
39045;DHT22;52192;52.002;5.956;2023-01-01T13:03:56;16.70;69.10
39045;DHT22;52192;52.002;5.956;2023-01-01T13:09:24;16.20;70.10
39045;DHT22;52192;52.002;5.956;2023-01-01T13:11:55;16.10;70.80
39045;DHT22;52192;52.002;5.956;2023-01-01T13:14:22;15.90;71.20
39045;DHT22;52192;52.002;5.956;2023-01-01T13:16:51;15.70;71.30
39045;DHT22;52192;52.002;5.956;2023-01-01T13:19:31;15.60;71.50
39045;DHT22;52192;52.002;5.956;2023-01-01T13:21:59;15.50;71.70
39045;DHT22;52192;52.002;5.956;2023-01-01T13:24:26;15.40;72.20
39045;DHT22;52192;52.002;5.956;2023-01-01T13:26:52;15.30;72.20
39045;DHT22;52192;52.002;5.956;2023-01-01T13:34:34;15.30;72.50
39045;DHT22;52192;52.002;5.956;2023-01-01T13:45:42;15.20;72.30
39045;DHT22;52192;52.002;5.956;2023-01-01T13:48:43;15.20;72.40
39045;DHT22;52192;52.002;5.956;2023-01-01T14:02:54;15.20;72.40
39045;DHT22;52192;52.002;5.956;2023-01-01T14:05:13;15.10;72.30
39045;DHT22;52192;52.002;5.956;2023-01-01T14:07:43;15.20;72.20
39045;DHT22;52192;52.002;5.956;2023-01-01T14:12:48;15.20;72.10
39045;DHT22;52192;52.002;5.956;2023-01-01T14:15:29;15.20;72.10
39045;DHT22;52192;52.002;5.956;2023-01-01T14:17:57;15.30;71.90
39045;DHT22;52192;52.002;5.956;2023-01-01T14:20:31;15.30;71.80
39045;DHT22;52192;52.002;5.956;2023-01-01T14:25:42;15.30;71.80
39045;DHT22;52192;52.002;5.956;2023-01-01T14:28:35;15.20;72.00
39045;DHT22;52192;52.002;5.956;2023-01-01T14:31:04;15.20;71.90
39045;DHT22;52192;52.002;5.956;2023-01-01T14:33:32;15.20;72.00
39045;DHT22;52192;52.002;5.956;2023-01-01T14:36:00;15.20;72.00
39045;DHT22;52192;52.002;5.956;2023-01-01T14:38:42;15.20;72.10
39045;DHT22;52192;52.002;5.956;2023-01-01T14:43:47;15.10;72.10
39045;DHT22;52192;52.002;5.956;2023-01-01T14:46:22;15.10;72.70
39045;DHT22;52192;52.002;5.956;2023-01-01T14:48:54;15.10;72.10
39045;DHT22;52192;52.002;5.956;2023-01-01T14:51:21;15.10;72.20
39045;DHT22;52192;52.002;5.956;2023-01-01T14:53:48;15.10;72.20
39045;DHT22;52192;52.002;5.956;2023-01-01T14:56:35;15.10;72.30
39045;DHT22;52192;52.002;5.956;2023-01-01T15:02:13;15.10;72.30
39045;DHT22;52192;52.002;5.956;2023-01-01T15:04:40;15.00;72.20
39045;DHT22;52192;52.002;5.956;2023-01-01T15:07:22;15.10;72.50
39045;DHT22;52192;52.002;5.956;2023-01-01T15:09:49;15.00;72.30
39045;DHT22;52192;52.002;5.956;2023-01-01T15:12:15;15.00;72.30
39045;DHT22;52192;52.002;5.956;2023-01-01T15:14:45;15.00;72.20
39045;DHT22;52192;52.002;5.956;2023-01-01T15:17:16;15.00;72.30
39045;DHT22;52192;52.002;5.956;2023-01-01T15:19:43;15.00;72.20
39045;DHT22;52192;52.002;5.956;2023-01-01T15:22:10;15.00;72.40
39045;DHT22;52192;52.002;5.956;2023-01-01T15:24:37;15.00;72.40
39045;DHT22;52192;52.002;5.956;2023-01-01T15:27:05;14.90;72.40
39045;DHT22;52192;52.002;5.956;2023-01-01T15:29:40;14.90;72.40
39045;DHT22;52192;52.002;5.956;2023-01-01T15:32:12;14.90;72.40
39045;DHT22;52192;52.002;5.956;2023-01-01T15:34:49;14.90;72.40
39045;DHT22;52192;52.002;5.956;2023-01-01T15:39:57;14.80;72.40
39045;DHT22;52192;52.002;5.956;2023-01-01T15:42:38;14.90;72.50
39045;DHT22;52192;52.002;5.956;2023-01-01T15:47:40;14.80;72.70
39045;DHT22;52192;52.002;5.956;2023-01-01T15:50:08;14.80;72.90
39045;DHT22;52192;52.002;5.956;2023-01-01T15:52:34;14.70;73.00
39045;DHT22;52192;52.002;5.956;2023-01-01T15:55:00;14.70;73.10
39045;DHT22;52192;52.002;5.956;2023-01-01T15:57:26;14.60;73.10
39045;DHT22;52192;52.002;5.956;2023-01-01T15:59:52;14.60;73.20
39045;DHT22;52192;52.002;5.956;2023-01-01T16:02:26;14.60;73.20
39045;DHT22;52192;52.002;5.956;2023-01-01T16:04:53;14.60;73.30
39045;DHT22;52192;52.002;5.956;2023-01-01T16:07:21;14.60;73.30
39045;DHT22;52192;52.002;5.956;2023-01-01T16:09:48;14.60;73.20
39045;DHT22;52192;52.002;5.956;2023-01-01T16:12:14;14.60;73.30
39045;DHT22;52192;52.002;5.956;2023-01-01T16:14:40;14.60;73.20
39045;DHT22;52192;52.002;5.956;2023-01-01T16:17:12;14.60;73.20
39045;DHT22;52192;52.002;5.956;2023-01-01T16:19:39;14.60;73.10
39045;DHT22;52192;52.002;5.956;2023-01-01T16:22:04;14.60;73.20
39045;DHT22;52192;52.002;5.956;2023-01-01T16:24:30;14.60;73.20
39045;DHT22;52192;52.002;5.956;2023-01-01T16:26:57;14.60;73.30
39045;DHT22;52192;52.002;5.956;2023-01-01T16:29:22;14.60;73.60
39045;DHT22;52192;52.002;5.956;2023-01-01T16:31:49;14.50;73.50
39045;DHT22;52192;52.002;5.956;2023-01-01T16:34:15;14.50;73.60
39045;DHT22;52192;52.002;5.956;2023-01-01T16:36:42;14.50;73.80
39045;DHT22;52192;52.002;5.956;2023-01-01T16:39:07;14.50;74.00
39045;DHT22;52192;52.002;5.956;2023-01-01T16:41:33;14.40;74.10
39045;DHT22;52192;52.002;5.956;2023-01-01T16:43:59;14.40;74.30
39045;DHT22;52192;52.002;5.956;2023-01-01T16:46:24;14.30;74.30
39045;DHT22;52192;52.002;5.956;2023-01-01T16:48:52;14.40;74.30
39045;DHT22;52192;52.002;5.956;2023-01-01T16:51:21;14.40;74.40
39045;DHT22;52192;52.002;5.956;2023-01-01T16:53:47;14.40;74.40
39045;DHT22;52192;52.002;5.956;2023-01-01T16:56:14;14.30;74.50
39045;DHT22;52192;52.002;5.956;2023-01-01T16:58:41;14.40;74.50
39045;DHT22;52192;52.002;5.956;2023-01-01T17:01:06;14.40;74.60
39045;DHT22;52192;52.002;5.956;2023-01-01T17:03:33;14.30;74.80
39045;DHT22;52192;52.002;5.956;2023-01-01T17:06:03;14.30;75.00
39045;DHT22;52192;52.002;5.956;2023-01-01T17:08:29;14.30;75.00
39045;DHT22;52192;52.002;5.956;2023-01-01T17:13:28;14.30;75.10
39045;DHT22;52192;52.002;5.956;2023-01-01T17:15:55;14.30;75.30
39045;DHT22;52192;52.002;5.956;2023-01-01T17:18:21;14.30;75.40
39045;DHT22;52192;52.002;5.956;2023-01-01T17:20:47;14.30;75.50
39045;DHT22;52192;52.002;5.956;2023-01-01T17:23:12;14.30;75.60
39045;DHT22;52192;52.002;5.956;2023-01-01T17:25:38;14.30;76.30
39045;DHT22;52192;52.002;5.956;2023-01-01T17:28:03;14.20;75.80
39045;DHT22;52192;52.002;5.956;2023-01-01T17:30:29;14.20;75.90
39045;DHT22;52192;52.002;5.956;2023-01-01T17:32:55;14.20;76.00
39045;DHT22;52192;52.002;5.956;2023-01-01T17:35:21;14.20;76.10
39045;DHT22;52192;52.002;5.956;2023-01-01T17:37:47;14.20;76.20
39045;DHT22;52192;52.002;5.956;2023-01-01T17:40:12;14.20;76.20
39045;DHT22;52192;52.002;5.956;2023-01-01T17:42:38;14.20;76.30
39045;DHT22;52192;52.002;5.956;2023-01-01T17:45:04;14.20;76.30
39045;DHT22;52192;52.002;5.956;2023-01-01T17:47:30;14.20;76.40
39045;DHT22;52192;52.002;5.956;2023-01-01T17:49:56;14.20;76.50
39045;DHT22;52192;52.002;5.956;2023-01-01T17:52:21;14.10;76.50
39045;DHT22;52192;52.002;5.956;2023-01-01T17:54:47;14.10;76.60
39045;DHT22;52192;52.002;5.956;2023-01-01T17:57:13;14.10;76.70
39045;DHT22;52192;52.002;5.956;2023-01-01T17:59:39;14.10;76.90
39045;DHT22;52192;52.002;5.956;2023-01-01T18:02:07;14.00;76.80
39045;DHT22;52192;52.002;5.956;2023-01-01T18:04:34;14.00;76.90
39045;DHT22;52192;52.002;5.956;2023-01-01T18:07:00;14.00;76.90
39045;DHT22;52192;52.002;5.956;2023-01-01T18:09:26;14.00;77.20
39045;DHT22;52192;52.002;5.956;2023-01-01T18:11:51;14.00;77.20
39045;DHT22;52192;52.002;5.956;2023-01-01T18:14:17;14.00;77.20